Salem, Florida
Current Conditions -  °F | °C
As of 5:55 AM on Wednesday 22 Oct 2014 (Local Time) from K40J Reporting Station
Clear Clear  
Wind Chill: 55°   Ceiling: Unl
Heat Index: 55°   Visibility: 10mi
Dew Point: 54°   Wind: 3mph
Humidity: 94%   Direction: 10°N
Pressure: 29.99"   Gusts: NA
Location:  29.89°N, 83.41°W
Report Text: K40J 220955Z AUTO 01003KT 10SM CLR 13/12 A2999 RMK AO2
Loading
Personal Weather Stations






























Interactive Weather Map
Tropical Storm Tracking
New forecast layout! Learn more

10-Day Weather Forecast

Advertisements
Track Severe Weather on mobile